createdAt,value
2022-08-20T00:02:16.438Z,16.90
2022-08-20T00:04:44.743Z,16.92
2022-08-20T00:07:14.466Z,16.48
2022-08-20T00:09:44.726Z,19.98
2022-08-20T00:12:18.055Z,22.33
2022-08-20T00:14:46.223Z,23.02
2022-08-20T00:17:14.347Z,22.27
2022-08-20T00:19:42.262Z,23.48
2022-08-20T00:22:10.338Z,16.42
2022-08-20T00:24:38.340Z,16.95
2022-08-20T00:27:07.260Z,17.77
2022-08-20T00:29:36.600Z,17.65
2022-08-20T00:32:04.758Z,17.58
2022-08-20T00:34:32.739Z,15.98
2022-08-20T00:37:00.631Z,15.90
2022-08-20T00:39:29.219Z,14.57
2022-08-20T00:41:57.565Z,15.02
2022-08-20T00:44:26.587Z,14.25
2022-08-20T00:46:55.843Z,12.15
2022-08-20T00:49:27.798Z,11.32
2022-08-20T00:52:02.747Z,10.77
2022-08-20T00:54:37.708Z,11.65
2022-08-20T00:57:11.674Z,10.88
2022-08-20T00:59:42.902Z,10.80
2022-08-20T01:02:16.165Z,12.43
2022-08-20T01:04:49.925Z,12.65
2022-08-20T01:07:20.507Z,13.48
2022-08-20T01:09:58.094Z,14.48
2022-08-20T01:12:29.471Z,13.70
2022-08-20T01:15:01.783Z,15.52
2022-08-20T01:17:41.606Z,15.38
2022-08-20T01:20:15.732Z,16.65
2022-08-20T01:23:13.220Z,16.77
2022-08-20T01:25:48.805Z,16.92
2022-08-20T01:28:22.750Z,18.73
2022-08-20T01:30:51.171Z,19.08
2022-08-20T01:33:24.469Z,18.75
2022-08-20T01:35:54.854Z,19.20
2022-08-20T01:38:24.089Z,19.80
2022-08-20T01:41:17.015Z,20.10
2022-08-20T01:43:46.786Z,20.13
2022-08-20T01:46:18.085Z,20.48
2022-08-20T01:48:47.780Z,21.30
2022-08-20T01:51:20.447Z,20.48
2022-08-20T01:53:52.215Z,20.75
2022-08-20T01:56:28.417Z,21.05
2022-08-20T01:59:00.278Z,21.13
2022-08-20T02:01:45.995Z,20.10
2022-08-20T02:04:21.144Z,20.85
2022-08-20T02:06:56.769Z,21.70
2022-08-20T02:09:29.257Z,20.08
2022-08-20T02:12:00.416Z,21.30
2022-08-20T02:14:30.362Z,20.73
2022-08-20T02:16:59.911Z,21.70
2022-08-20T02:19:35.723Z,19.65
2022-08-20T02:22:20.946Z,21.85
2022-08-20T02:24:49.984Z,20.55
2022-08-20T02:27:23.626Z,21.38
2022-08-20T02:29:52.457Z,20.90
2022-08-20T02:32:28.339Z,23.92
2022-08-20T02:35:04.405Z,23.33
2022-08-20T02:37:34.017Z,23.35
2022-08-20T02:40:03.623Z,23.45
2022-08-20T02:42:32.878Z,22.90
2022-08-20T02:45:01.709Z,23.25
2022-08-20T02:47:29.604Z,22.40
2022-08-20T02:49:59.582Z,23.05
2022-08-20T02:52:27.520Z,22.02
2022-08-20T02:54:55.363Z,23.42
2022-08-20T02:57:23.243Z,22.75
2022-08-20T02:59:53.348Z,21.80
2022-08-20T03:02:21.544Z,21.88
2022-08-20T03:04:49.496Z,23.83
2022-08-20T03:07:18.138Z,22.58
2022-08-20T03:09:45.971Z,22.98
2022-08-20T03:12:14.313Z,24.73
2022-08-20T03:14:42.307Z,22.98
2022-08-20T03:17:12.381Z,24.15
2022-08-20T03:19:40.314Z,24.77
2022-08-20T03:22:08.100Z,22.58
2022-08-20T03:24:35.905Z,23.38
2022-08-20T03:27:04.562Z,23.00
2022-08-20T03:29:32.433Z,22.25
2022-08-20T03:32:03.029Z,22.92
2022-08-20T03:34:35.267Z,22.88
2022-08-20T03:37:03.514Z,22.88
2022-08-20T03:39:31.443Z,22.95
2022-08-20T03:41:59.317Z,22.90
2022-08-20T03:44:27.288Z,23.42
2022-08-20T03:46:55.192Z,22.80
2022-08-20T03:49:24.316Z,23.83
2022-08-20T03:51:58.052Z,25.50
2022-08-20T03:54:29.110Z,24.17
2022-08-20T03:57:02.664Z,24.17
2022-08-20T03:59:34.454Z,22.90
2022-08-20T04:02:02.336Z,24.52
2022-08-20T04:04:30.303Z,24.13
2022-08-20T04:06:59.566Z,23.75
2022-08-20T04:09:30.238Z,24.98
2022-08-20T04:12:00.138Z,22.65
2022-08-20T04:14:29.310Z,22.85
2022-08-20T04:16:58.127Z,20.27
2022-08-20T04:19:27.045Z,21.55
2022-08-20T04:21:56.974Z,21.67
2022-08-20T04:24:32.214Z,22.27
2022-08-20T04:27:02.510Z,23.25
2022-08-20T04:29:32.507Z,24.08
2022-08-20T04:32:02.814Z,23.75
2022-08-20T04:34:35.179Z,25.23
2022-08-20T04:37:04.329Z,24.88
2022-08-20T04:39:33.743Z,26.17
2022-08-20T04:42:01.539Z,26.17
2022-08-20T04:44:29.403Z,26.58
2022-08-20T04:46:57.863Z,26.90
2022-08-20T04:49:26.374Z,25.33
2022-08-20T04:51:54.715Z,25.50
2022-08-20T04:54:22.722Z,26.98
2022-08-20T04:56:53.041Z,26.10
2022-08-20T04:59:20.924Z,24.90
2022-08-20T05:01:48.713Z,26.08
2022-08-20T05:04:16.542Z,27.02
2022-08-20T05:06:45.230Z,26.02
2022-08-20T05:09:16.247Z,26.55
2022-08-20T05:11:44.712Z,27.48
2022-08-20T05:14:14.693Z,27.60
2022-08-20T05:16:42.550Z,28.15
2022-08-20T05:19:13.351Z,34.42
2022-08-20T05:21:41.562Z,32.95
2022-08-20T05:24:12.146Z,29.67
2022-08-20T05:26:40.314Z,28.05
2022-08-20T05:29:08.297Z,28.88
2022-08-20T05:31:38.362Z,28.98
2022-08-20T05:34:11.881Z,28.85
2022-08-20T05:36:43.759Z,29.23
2022-08-20T05:39:13.637Z,29.23
2022-08-20T05:41:42.137Z,29.13
2022-08-20T05:44:13.956Z,27.98
2022-08-20T05:46:46.236Z,28.67
2022-08-20T05:49:21.190Z,27.58
2022-08-20T05:51:53.549Z,28.58
2022-08-20T05:54:22.305Z,27.48
2022-08-20T05:56:50.967Z,27.60
2022-08-20T05:59:22.281Z,28.00
2022-08-20T06:01:53.210Z,27.27
2022-08-20T06:04:28.305Z,27.45
2022-08-20T06:07:04.341Z,27.90
2022-08-20T06:09:36.083Z,26.40
2022-08-20T06:12:08.810Z,26.23
2022-08-20T06:14:36.937Z,26.15
2022-08-20T06:17:13.341Z,26.73
2022-08-20T06:19:44.531Z,27.17
2022-08-20T06:22:18.821Z,28.80
2022-08-20T06:24:54.964Z,27.40
2022-08-20T06:27:24.694Z,26.13
2022-08-20T06:29:53.779Z,24.90
2022-08-20T06:32:32.457Z,24.05
2022-08-20T06:35:02.119Z,24.60
2022-08-20T06:37:36.466Z,25.92
2022-08-20T06:40:09.357Z,24.58
2022-08-20T06:42:47.818Z,23.25
2022-08-20T06:45:19.039Z,21.73
2022-08-20T06:47:48.300Z,21.05
2022-08-20T06:50:19.819Z,20.63
2022-08-20T06:52:52.282Z,20.38
2022-08-20T06:55:21.866Z,21.40
2022-08-20T06:57:58.094Z,19.40
2022-08-20T07:00:26.882Z,20.90
2022-08-20T07:02:56.366Z,21.10
2022-08-20T07:05:24.257Z,21.55
2022-08-20T07:07:52.683Z,16.63
2022-08-20T07:10:24.614Z,18.77
2022-08-20T07:12:52.580Z,18.60
2022-08-20T07:15:23.490Z,15.68
2022-08-20T07:17:56.459Z,16.98
2022-08-20T07:20:32.889Z,14.50
2022-08-20T07:23:01.768Z,14.90
2022-08-20T07:25:31.754Z,14.25
2022-08-20T07:28:02.236Z,12.05
2022-08-20T07:30:56.859Z,12.55
2022-08-20T07:33:25.969Z,11.07
2022-08-20T07:36:00.253Z,10.23
2022-08-20T07:38:30.076Z,9.35
2022-08-20T07:41:01.235Z,9.20
2022-08-20T07:43:29.982Z,9.15
2022-08-20T07:46:08.556Z,9.25
2022-08-20T07:48:40.129Z,9.13
2022-08-20T07:51:11.499Z,10.20
2022-08-20T07:53:40.893Z,10.48
2022-08-20T07:56:12.796Z,11.10
2022-08-20T07:58:49.867Z,10.32
2022-08-20T08:01:20.523Z,9.30
2022-08-20T08:03:50.058Z,8.80
2022-08-20T08:06:29.598Z,9.25
2022-08-20T08:09:05.946Z,9.13
2022-08-20T08:11:38.969Z,8.73
2022-08-20T08:14:09.811Z,7.60
2022-08-20T08:16:39.785Z,5.65
2022-08-20T08:19:11.834Z,4.93
2022-08-20T08:21:42.091Z,5.47
2022-08-20T08:24:12.677Z,5.65
2022-08-20T08:26:42.959Z,6.03
2022-08-20T08:29:14.419Z,6.47
2022-08-20T08:31:42.408Z,5.97
2022-08-20T08:34:10.462Z,5.60
2022-08-20T08:36:39.351Z,5.70
2022-08-20T08:39:08.603Z,5.00
2022-08-20T08:41:49.988Z,5.00
2022-08-20T08:44:23.453Z,5.93
2022-08-20T08:46:57.090Z,5.22
2022-08-20T08:49:37.622Z,4.90
2022-08-20T08:52:14.586Z,5.80
2022-08-20T08:54:48.904Z,5.00
2022-08-20T08:57:20.169Z,4.20
2022-08-20T09:00:03.872Z,3.67
2022-08-20T09:05:19.242Z,3.40
2022-08-20T09:07:56.048Z,3.40
2022-08-20T09:10:25.424Z,2.85
2022-08-20T09:12:53.449Z,2.60
2022-08-20T09:15:21.955Z,2.88
2022-08-20T09:17:50.960Z,2.83
2022-08-20T09:20:19.410Z,2.75
2022-08-20T09:22:47.214Z,3.50
2022-08-20T09:25:26.029Z,2.95
2022-08-20T09:27:55.319Z,3.35
2022-08-20T09:30:23.238Z,3.33
2022-08-20T09:32:51.189Z,3.63
2022-08-20T09:35:21.222Z,3.42
2022-08-20T09:37:50.889Z,2.83
2022-08-20T09:40:21.350Z,2.92
2022-08-20T09:42:51.003Z,3.35
2022-08-20T09:45:20.688Z,3.17
2022-08-20T09:47:56.107Z,3.35
2022-08-20T09:50:27.038Z,3.10
2022-08-20T09:52:58.494Z,3.50
2022-08-20T09:55:33.392Z,2.92
2022-08-20T09:58:03.988Z,2.60
2022-08-20T10:00:33.454Z,3.50
2022-08-20T10:03:03.329Z,3.78
2022-08-20T10:05:31.738Z,3.88
2022-08-20T10:07:59.787Z,3.40
2022-08-20T10:10:32.750Z,4.15
2022-08-20T10:13:02.151Z,3.50
2022-08-20T10:15:33.154Z,3.53
2022-08-20T10:18:05.751Z,3.63
2022-08-20T10:20:35.641Z,3.75
2022-08-20T10:23:04.713Z,3.53
2022-08-20T10:25:32.633Z,3.35
2022-08-20T10:28:01.743Z,3.80
2022-08-20T10:30:29.674Z,3.85
2022-08-20T10:32:59.927Z,3.95
2022-08-20T10:35:29.043Z,3.58
2022-08-20T10:37:57.362Z,3.50
2022-08-20T10:40:25.530Z,3.53
2022-08-20T10:42:54.502Z,3.45
2022-08-20T10:45:22.671Z,3.17
2022-08-20T10:47:51.190Z,3.05
2022-08-20T10:50:20.524Z,3.17
2022-08-20T10:52:48.623Z,2.70
2022-08-20T10:55:22.171Z,4.00
2022-08-20T10:57:50.383Z,3.92
2022-08-20T11:00:19.596Z,3.63
2022-08-20T11:02:47.405Z,3.45
2022-08-20T11:05:17.058Z,3.28
2022-08-20T11:07:59.843Z,3.33
2022-08-20T11:10:33.241Z,3.53
2022-08-20T11:13:02.232Z,3.28
2022-08-20T11:15:30.357Z,3.40
2022-08-20T11:17:58.535Z,3.50
2022-08-20T11:20:27.086Z,3.40
2022-08-20T11:22:56.280Z,3.17
2022-08-20T11:25:27.819Z,3.70
2022-08-20T11:27:57.478Z,3.20
2022-08-20T11:30:29.876Z,3.90
2022-08-20T11:33:00.116Z,3.17
2022-08-20T11:35:43.487Z,3.97
2022-08-20T11:38:19.383Z,3.35
2022-08-20T11:40:47.672Z,3.33
2022-08-20T11:43:17.220Z,3.20
2022-08-20T11:45:50.680Z,3.03
2022-08-20T11:48:19.032Z,3.17
2022-08-20T11:50:47.931Z,2.97
2022-08-20T11:53:16.111Z,3.20
2022-08-20T11:55:47.384Z,3.35
2022-08-20T11:58:15.835Z,3.10
2022-08-20T12:00:43.821Z,3.20
2022-08-20T12:03:12.660Z,3.03
2022-08-20T12:05:44.331Z,3.10
2022-08-20T12:08:27.598Z,2.85
2022-08-20T12:11:01.466Z,3.20
2022-08-20T12:13:47.535Z,2.70
2022-08-20T12:16:18.819Z,3.45
2022-08-20T12:18:47.620Z,2.92
2022-08-20T12:21:16.504Z,3.20
2022-08-20T12:23:47.111Z,3.00
2022-08-20T12:26:16.696Z,2.53
2022-08-20T12:28:44.695Z,2.97
2022-08-20T12:31:15.739Z,2.85
2022-08-20T12:33:43.568Z,2.30
2022-08-20T12:36:11.497Z,2.42
2022-08-20T12:38:39.309Z,2.10
2022-08-20T12:41:07.151Z,2.20
2022-08-20T12:43:36.584Z,2.70
2022-08-20T12:46:04.623Z,2.75
2022-08-20T12:48:35.227Z,2.60
2022-08-20T12:51:03.228Z,1.95
2022-08-20T12:53:31.143Z,2.22
2022-08-20T12:55:58.996Z,2.50
2022-08-20T12:58:26.940Z,2.30
2022-08-20T13:00:56.152Z,2.33
2022-08-20T13:03:23.989Z,2.13
2022-08-20T13:05:51.803Z,2.65
2022-08-20T13:08:19.784Z,2.10
2022-08-20T13:10:48.234Z,2.20
2022-08-20T13:13:20.913Z,2.13
2022-08-20T13:15:50.848Z,2.10
2022-08-20T13:18:20.219Z,2.28
2022-08-20T13:20:48.670Z,1.92
2022-08-20T13:23:17.534Z,2.17
2022-08-20T13:25:45.466Z,2.13
2022-08-20T13:28:13.268Z,2.22
2022-08-20T13:30:41.492Z,2.42
2022-08-20T13:33:09.461Z,2.22
2022-08-20T13:35:41.019Z,2.28
2022-08-20T13:38:13.008Z,2.05
2022-08-20T13:40:41.098Z,3.28
2022-08-20T13:43:12.085Z,2.08
2022-08-20T13:45:41.185Z,1.90
2022-08-20T13:48:14.748Z,2.50
2022-08-20T13:50:46.853Z,2.25
2022-08-20T13:53:17.491Z,2.50
2022-08-20T13:55:47.448Z,2.65
2022-08-20T13:58:15.418Z,1.98
2022-08-20T14:00:45.210Z,2.33
2022-08-20T14:03:14.015Z,2.60
2022-08-20T14:05:49.423Z,2.17
2022-08-20T14:08:20.229Z,2.40
2022-08-20T14:10:51.639Z,2.40
2022-08-20T14:13:23.652Z,2.50
2022-08-20T14:15:52.332Z,2.53
2022-08-20T14:18:21.141Z,2.10
2022-08-20T14:20:51.172Z,2.30
2022-08-20T14:23:19.045Z,1.90
2022-08-20T14:25:50.031Z,2.03
2022-08-20T14:28:21.648Z,2.20
2022-08-20T14:30:52.871Z,2.15
2022-08-20T14:33:23.227Z,2.25
2022-08-20T14:35:53.235Z,2.28
2022-08-20T14:38:22.628Z,1.95
2022-08-20T14:40:51.212Z,2.25
2022-08-20T14:43:19.866Z,2.20
2022-08-20T14:45:47.814Z,2.40
2022-08-20T14:48:15.664Z,2.50
2022-08-20T14:50:43.512Z,2.13
2022-08-20T14:53:14.223Z,2.75
2022-08-20T14:55:42.283Z,2.10
2022-08-20T14:58:12.403Z,2.20
2022-08-20T15:00:42.192Z,2.03
2022-08-20T15:03:10.437Z,2.13
2022-08-20T15:05:39.938Z,2.08
2022-08-20T15:08:10.560Z,2.20
2022-08-20T15:10:40.318Z,2.17
2022-08-20T15:13:08.793Z,2.17
2022-08-20T15:15:36.893Z,2.30
2022-08-20T15:18:04.981Z,2.10
2022-08-20T15:20:35.909Z,1.90
2022-08-20T15:23:05.049Z,2.03
2022-08-20T15:25:37.491Z,2.25
2022-08-20T15:28:10.183Z,2.30
2022-08-20T15:30:41.527Z,2.08
2022-08-20T15:33:11.062Z,2.00
2022-08-20T15:35:39.800Z,2.38
2022-08-20T15:38:07.838Z,1.85
2022-08-20T15:40:36.092Z,2.25
2022-08-20T15:43:05.370Z,1.92
2022-08-20T15:45:36.090Z,2.20
2022-08-20T15:48:12.849Z,2.40
2022-08-20T15:51:02.863Z,2.30
2022-08-20T15:53:39.561Z,1.90
2022-08-20T15:56:20.519Z,2.20
2022-08-20T15:59:03.440Z,2.25
2022-08-20T16:01:46.350Z,2.05
2022-08-20T16:05:11.165Z,1.90
2022-08-20T16:07:54.568Z,2.05
2022-08-20T16:10:30.232Z,1.75
2022-08-20T16:13:06.204Z,2.30
2022-08-20T16:15:44.229Z,1.80
2022-08-20T16:18:23.096Z,2.15
2022-08-20T16:20:55.302Z,1.85
2022-08-20T16:23:31.185Z,2.13
2022-08-20T16:26:17.991Z,1.90
2022-08-20T16:29:10.511Z,2.00
2022-08-20T16:31:48.007Z,2.08
2022-08-20T16:34:33.630Z,2.00
2022-08-20T16:37:21.431Z,2.08
2022-08-20T16:40:01.370Z,1.88
2022-08-20T16:42:39.053Z,1.95
2022-08-20T16:45:20.068Z,2.20
2022-08-20T16:47:50.749Z,1.63
2022-08-20T16:50:25.855Z,2.20
2022-08-20T16:52:53.728Z,2.08
2022-08-20T16:55:23.495Z,2.00
2022-08-20T16:57:53.640Z,1.88
2022-08-20T17:00:26.274Z,2.10
2022-08-20T17:02:59.840Z,1.83
2022-08-20T17:05:44.801Z,2.00
2022-08-20T17:08:21.757Z,2.25
2022-08-20T17:10:59.763Z,4.57
2022-08-20T17:13:33.135Z,3.05
2022-08-20T17:16:07.135Z,3.17
2022-08-20T17:18:38.563Z,4.05
2022-08-20T17:21:23.114Z,2.50
2022-08-20T17:23:57.522Z,1.90
2022-08-20T17:26:32.608Z,2.03
2022-08-20T17:29:10.899Z,1.98
2022-08-20T17:31:43.174Z,1.95
2022-08-20T17:34:16.163Z,1.88
2022-08-20T17:36:56.808Z,1.80
2022-08-20T17:39:28.830Z,2.20
2022-08-20T17:42:08.709Z,2.30
2022-08-20T17:44:43.271Z,1.98
2022-08-20T17:47:16.780Z,2.17
2022-08-20T17:49:57.291Z,2.00
2022-08-20T17:52:41.513Z,2.10
2022-08-20T17:55:12.514Z,2.35
2022-08-20T17:57:44.782Z,1.98
2022-08-20T18:00:18.277Z,1.83
2022-08-20T18:02:46.098Z,1.80
2022-08-20T18:05:19.617Z,1.75
2022-08-20T18:08:12.185Z,1.90
2022-08-20T18:10:57.101Z,1.88
2022-08-20T18:13:48.067Z,2.08
2022-08-20T18:16:28.512Z,1.90
2022-08-20T18:19:11.900Z,2.00
2022-08-20T18:22:09.411Z,2.00
2022-08-20T18:24:45.048Z,2.38
2022-08-20T18:27:20.507Z,1.83
2022-08-20T18:29:57.050Z,2.00
2022-08-20T18:32:31.782Z,1.70
2022-08-20T18:35:13.338Z,1.98
2022-08-20T18:37:41.465Z,1.80
2022-08-20T18:40:28.679Z,1.83
2022-08-20T18:42:57.899Z,2.00
2022-08-20T18:45:33.068Z,1.85
2022-08-20T18:48:02.815Z,1.80
2022-08-20T18:50:44.328Z,2.13
2022-08-20T18:53:19.797Z,2.17
2022-08-20T18:56:05.697Z,3.83
2022-08-20T18:58:47.738Z,4.00
2022-08-20T19:01:16.005Z,4.20
2022-08-20T19:03:50.651Z,3.20
2022-08-20T19:06:39.114Z,2.50
2022-08-20T19:09:24.315Z,2.42
2022-08-20T19:12:29.706Z,2.63
2022-08-20T19:15:07.110Z,2.55
2022-08-20T19:17:56.513Z,2.28
2022-08-20T19:20:29.946Z,2.25
2022-08-20T19:23:06.064Z,2.30
2022-08-20T19:25:40.573Z,2.50
2022-08-20T19:28:21.106Z,2.60
2022-08-20T19:30:49.719Z,2.60
2022-08-20T19:33:29.693Z,2.28
2022-08-20T19:36:12.658Z,2.55
2022-08-20T19:38:50.198Z,2.42
2022-08-20T19:41:30.990Z,2.53
2022-08-20T19:44:02.479Z,2.80
2022-08-20T19:46:37.477Z,2.30
2022-08-20T19:52:09.047Z,1.92
2022-08-20T19:54:48.450Z,2.10
2022-08-20T19:57:18.870Z,2.30
2022-08-20T19:59:58.972Z,2.05
2022-08-20T20:02:30.751Z,2.42
2022-08-20T20:04:58.651Z,2.10
2022-08-20T20:07:38.872Z,1.90
2022-08-20T20:10:19.639Z,2.10
2022-08-20T20:12:47.963Z,2.25
2022-08-20T20:15:21.179Z,2.10
2022-08-20T20:17:49.811Z,2.10
2022-08-20T20:20:25.555Z,2.20
2022-08-20T20:23:00.910Z,2.47
2022-08-20T20:25:42.215Z,2.50
2022-08-20T20:28:16.993Z,2.67
2022-08-20T20:30:48.562Z,2.80
2022-08-20T20:33:23.764Z,2.17
2022-08-20T20:36:04.179Z,2.47
2022-08-20T20:38:34.919Z,2.35
2022-08-20T20:41:06.185Z,2.50
2022-08-20T20:43:38.094Z,2.20
2022-08-20T20:46:16.448Z,2.90
2022-08-20T20:48:50.095Z,2.83
2022-08-20T20:51:25.678Z,2.60
2022-08-20T20:53:58.008Z,2.70
2022-08-20T20:56:34.693Z,3.47
2022-08-20T20:59:07.001Z,2.78
2022-08-20T21:01:49.578Z,3.30
2022-08-20T21:04:20.284Z,3.05
2022-08-20T21:06:48.924Z,3.70
2022-08-20T21:09:18.702Z,3.58
2022-08-20T21:11:47.281Z,3.92
2022-08-20T21:14:16.080Z,3.97
2022-08-20T21:16:45.710Z,3.47
2022-08-20T21:19:15.019Z,3.90
2022-08-20T21:21:43.905Z,4.18
2022-08-20T21:24:12.351Z,4.53
2022-08-20T21:26:41.009Z,4.75
2022-08-20T21:29:13.219Z,3.42
2022-08-20T21:31:44.073Z,3.30
2022-08-20T21:34:16.368Z,3.00
2022-08-20T21:36:45.150Z,3.10
2022-08-20T21:39:14.459Z,3.20
2022-08-20T21:41:44.365Z,3.33
2022-08-20T21:44:21.513Z,3.42
2022-08-20T21:46:50.353Z,3.45
2022-08-20T21:49:20.135Z,3.83
2022-08-20T21:51:49.248Z,3.85
2022-08-20T21:54:18.202Z,3.67
2022-08-20T21:56:51.804Z,3.78
2022-08-20T21:59:22.719Z,3.72
2022-08-20T22:01:51.312Z,3.55
2022-08-20T22:04:21.512Z,3.50
2022-08-20T22:06:50.169Z,3.70
2022-08-20T22:09:20.648Z,3.70
2022-08-20T22:11:53.977Z,3.95
2022-08-20T22:14:23.473Z,3.92
2022-08-20T22:16:51.559Z,3.80
2022-08-20T22:19:21.142Z,3.90
2022-08-20T22:21:50.222Z,4.03
2022-08-20T22:24:18.241Z,4.35
2022-08-20T22:26:46.227Z,4.60
2022-08-20T22:29:14.331Z,5.10
2022-08-20T22:31:44.072Z,4.70
2022-08-20T22:34:14.191Z,4.43
2022-08-20T22:36:43.617Z,4.65
2022-08-20T22:39:12.914Z,5.20
2022-08-20T22:41:41.199Z,5.20
2022-08-20T22:44:09.417Z,4.65
2022-08-20T22:46:44.997Z,5.18
2022-08-20T22:49:27.819Z,4.65
2022-08-20T22:51:57.586Z,4.47
2022-08-20T22:54:26.020Z,5.28
2022-08-20T22:56:55.101Z,5.63
2022-08-20T22:59:24.416Z,5.60
2022-08-20T23:01:53.966Z,5.70
2022-08-20T23:04:26.408Z,5.18
2022-08-20T23:06:55.789Z,5.50
2022-08-20T23:09:26.163Z,5.40
2022-08-20T23:11:54.558Z,6.25
2022-08-20T23:14:22.530Z,6.35
2022-08-20T23:17:03.446Z,6.38
2022-08-20T23:19:31.470Z,5.97
2022-08-20T23:21:59.507Z,6.65
2022-08-20T23:24:28.989Z,5.93
2022-08-20T23:26:57.367Z,5.75
2022-08-20T23:29:26.606Z,5.60
2022-08-20T23:31:56.854Z,5.38
2022-08-20T23:34:26.340Z,5.50
2022-08-20T23:36:56.881Z,5.93
2022-08-20T23:39:25.591Z,5.70
2022-08-20T23:41:55.879Z,6.00
2022-08-20T23:44:26.197Z,6.63
2022-08-20T23:46:58.379Z,7.75
2022-08-20T23:49:27.552Z,8.68
2022-08-20T23:51:55.982Z,9.23
2022-08-20T23:54:23.960Z,9.68
2022-08-20T23:56:55.525Z,9.00
2022-08-20T23:59:26.486Z,7.90
